SSH weather

Sharm El Sheikh International Airport
Sharm el-Sheikh, South Sinai Governorate, Egypt

Public forecast

Using degrees Celsius for public forecast. Weather courtesy of forecast.io.

Current aviation weather report (METAR) for Sharm El Sheikh International Airport

Retrieved 2019/10/17 13:00 UTC (2 hours ago):

HESH 171300Z 15005KT 9999 FEW020 SCT200 33/14 Q1013 NOSIG

Aviation forecast (TAF) for Sharm El Sheikh International Airport

Retrieved 2019/10/17 12:51 UTC (2 hours ago):

TAF TAF HESH 171100Z 1712/1818 02016KT 9999 SCT025